createdAt,value
2019-03-16T00:00:38.073Z,71.50
2019-03-16T00:03:10.339Z,71.00
2019-03-16T00:05:41.332Z,71.40
2019-03-16T00:08:15.155Z,71.40
2019-03-16T00:10:46.721Z,71.00
2019-03-16T00:13:18.072Z,70.90
2019-03-16T00:15:49.293Z,70.60
2019-03-16T00:18:20.252Z,70.70
2019-03-16T00:20:58.146Z,71.10
2019-03-16T00:23:30.895Z,71.70
2019-03-16T00:26:01.982Z,71.70
2019-03-16T00:28:33.160Z,71.80
2019-03-16T00:31:04.159Z,72.20
2019-03-16T00:33:38.164Z,72.40
2019-03-16T00:36:09.229Z,72.60
2019-03-16T00:38:40.435Z,72.40
2019-03-16T00:41:12.004Z,72.60
2019-03-16T00:43:43.045Z,72.80
2019-03-16T00:46:14.115Z,73.60
2019-03-16T00:48:48.359Z,73.00
2019-03-16T00:51:24.087Z,73.00
2019-03-16T00:53:55.343Z,73.20
2019-03-16T00:56:28.399Z,73.50
2019-03-16T00:58:59.191Z,73.60
2019-03-16T01:01:30.196Z,73.80
2019-03-16T01:04:05.630Z,73.90
2019-03-16T01:06:40.937Z,73.80
2019-03-16T01:09:11.885Z,74.00
2019-03-16T01:11:43.041Z,73.90
2019-03-16T01:14:14.101Z,73.90
2019-03-16T01:16:45.249Z,73.70
2019-03-16T01:19:16.145Z,73.70
2019-03-16T01:21:47.294Z,74.00
2019-03-16T01:24:23.568Z,74.40
2019-03-16T01:26:54.653Z,74.60
2019-03-16T01:29:25.736Z,74.70
2019-03-16T01:32:02.543Z,74.50
2019-03-16T01:34:33.551Z,74.30
2019-03-16T01:37:04.590Z,73.70
2019-03-16T01:39:38.516Z,73.30
2019-03-16T01:42:24.996Z,73.90
2019-03-16T01:44:57.506Z,73.00
2019-03-16T01:47:28.611Z,73.00
2019-03-16T01:49:59.535Z,72.50
2019-03-16T01:52:37.705Z,72.40
2019-03-16T01:55:11.004Z,72.80
2019-03-16T01:57:42.013Z,72.80
2019-03-16T02:00:13.425Z,73.20
2019-03-16T02:02:54.593Z,73.70
2019-03-16T02:05:17.302Z,74.10
2019-03-16T02:07:49.530Z,74.20
2019-03-16T02:10:20.775Z,74.50
2019-03-16T02:12:53.190Z,74.50
2019-03-16T02:15:26.971Z,74.80
2019-03-16T02:18:04.141Z,75.80
2019-03-16T02:20:39.214Z,75.20
2019-03-16T02:23:11.284Z,75.20
2019-03-16T02:25:42.357Z,74.90
2019-03-16T02:28:14.436Z,74.90
2019-03-16T02:30:45.372Z,74.90
2019-03-16T02:33:19.996Z,75.00
2019-03-16T02:35:49.127Z,75.00
2019-03-16T02:38:20.481Z,75.00
2019-03-16T02:40:54.227Z,74.90
2019-03-16T02:43:25.266Z,74.70
2019-03-16T02:45:56.279Z,74.70
2019-03-16T02:48:36.233Z,74.70
2019-03-16T02:51:07.147Z,74.60
2019-03-16T02:53:45.692Z,74.50
2019-03-16T02:56:16.588Z,75.50
2019-03-16T02:58:48.657Z,74.50
2019-03-16T03:01:20.961Z,74.40
2019-03-16T03:03:52.266Z,74.50
2019-03-16T03:06:26.911Z,74.70
2019-03-16T03:08:59.498Z,74.80
2019-03-16T03:11:32.157Z,74.90
2019-03-16T03:14:13.596Z,74.90
2019-03-16T03:17:09.946Z,74.80
2019-03-16T03:19:41.947Z,74.90
2019-03-16T03:22:23.605Z,74.60
2019-03-16T03:24:56.330Z,74.50
2019-03-16T03:28:06.612Z,74.40
2019-03-16T03:30:30.503Z,74.30
2019-03-16T03:33:03.226Z,74.20
2019-03-16T03:35:45.045Z,74.20
2019-03-16T03:38:28.260Z,74.30
2019-03-16T03:41:19.194Z,73.90
2019-03-16T03:43:52.751Z,73.90
2019-03-16T03:46:23.794Z,73.90
2019-03-16T03:48:58.789Z,73.60
2019-03-16T03:51:43.412Z,73.60
2019-03-16T03:54:26.059Z,73.60
2019-03-16T03:57:05.615Z,73.80
2019-03-16T04:00:24.982Z,73.80
2019-03-16T04:02:41.317Z,74.20
2019-03-16T04:05:16.153Z,74.50
2019-03-16T04:08:06.091Z,74.40
2019-03-16T04:10:45.836Z,74.40
2019-03-16T04:13:41.893Z,74.40
2019-03-16T04:16:26.425Z,74.20
2019-03-16T04:19:10.377Z,74.20
2019-03-16T04:21:46.596Z,74.00
2019-03-16T04:24:44.929Z,74.10
2019-03-16T04:27:28.529Z,73.50
2019-03-16T04:30:25.969Z,73.00
2019-03-16T04:33:14.419Z,73.10
2019-03-16T04:36:20.856Z,73.10
2019-03-16T04:38:39.834Z,73.10
2019-03-16T04:41:23.549Z,73.20
2019-03-16T04:44:06.320Z,73.20
2019-03-16T04:46:38.749Z,73.20
2019-03-16T04:49:56.459Z,73.70
2019-03-16T04:52:34.375Z,73.10
2019-03-16T04:55:19.053Z,73.70
2019-03-16T04:58:25.651Z,73.80
2019-03-16T05:01:23.943Z,73.80
2019-03-16T05:04:07.263Z,73.90
2019-03-16T05:06:53.115Z,73.90
2019-03-16T05:09:28.843Z,73.70
2019-03-16T05:12:09.451Z,73.40
2019-03-16T05:15:03.737Z,73.00
2019-03-16T05:17:36.779Z,73.10
2019-03-16T05:20:14.192Z,73.30
2019-03-16T05:22:50.525Z,73.00
2019-03-16T05:25:26.354Z,72.90
2019-03-16T05:28:00.518Z,72.80
2019-03-16T05:30:33.018Z,72.10
2019-03-16T05:33:03.966Z,71.90
2019-03-16T05:35:36.409Z,71.50
2019-03-16T05:38:13.151Z,71.20
2019-03-16T05:40:45.718Z,70.80
2019-03-16T05:43:31.593Z,70.40
2019-03-16T05:46:02.596Z,70.70
2019-03-16T05:48:38.993Z,70.50
2019-03-16T05:51:11.030Z,70.70
2019-03-16T05:53:42.049Z,70.10
2019-03-16T05:56:13.271Z,70.10
2019-03-16T05:58:44.667Z,69.90
2019-03-16T06:01:21.614Z,70.00
2019-03-16T06:03:56.576Z,70.00
2019-03-16T06:06:27.688Z,69.70
2019-03-16T06:09:01.804Z,69.60
2019-03-16T06:11:35.587Z,69.50
2019-03-16T06:14:11.814Z,69.30
2019-03-16T06:17:01.566Z,69.20
2019-03-16T06:19:32.691Z,69.10
2019-03-16T06:22:05.506Z,68.90
2019-03-16T06:24:41.183Z,68.90
2019-03-16T06:27:15.451Z,69.00
2019-03-16T06:29:45.291Z,68.50
2019-03-16T06:32:16.335Z,68.50
2019-03-16T06:34:47.620Z,68.00
2019-03-16T06:37:18.930Z,68.00
2019-03-16T06:39:49.996Z,69.10
2019-03-16T06:42:21.278Z,67.70
2019-03-16T06:44:52.585Z,67.20
2019-03-16T06:47:23.772Z,66.80
2019-03-16T06:49:55.048Z,66.20
2019-03-16T06:52:26.269Z,66.10
2019-03-16T06:55:12.952Z,66.30
2019-03-16T06:57:43.907Z,66.40
2019-03-16T07:00:15.263Z,65.60
2019-03-16T07:02:46.671Z,65.70
2019-03-16T07:05:20.742Z,66.00
2019-03-16T07:07:51.457Z,65.60
2019-03-16T07:10:33.915Z,65.30
2019-03-16T07:13:05.146Z,64.50
2019-03-16T07:15:44.829Z,64.30
2019-03-16T07:18:18.353Z,64.00
2019-03-16T07:20:50.900Z,63.80
2019-03-16T07:23:25.068Z,63.30
2019-03-16T07:25:59.253Z,62.10
2019-03-16T07:28:30.370Z,60.90
2019-03-16T07:31:02.390Z,61.40
2019-03-16T07:33:33.837Z,61.00
2019-03-16T07:36:05.088Z,60.30
2019-03-16T07:38:48.431Z,61.20
2019-03-16T07:41:21.406Z,61.30
2019-03-16T07:43:52.867Z,61.90
2019-03-16T07:46:33.723Z,61.60
2019-03-16T07:49:04.785Z,62.10
2019-03-16T07:51:35.987Z,60.60
2019-03-16T07:54:09.066Z,60.30
2019-03-16T07:56:40.579Z,61.00
2019-03-16T07:59:12.056Z,61.60
2019-03-16T08:01:43.113Z,62.60
2019-03-16T08:04:14.189Z,63.30
2019-03-16T08:06:45.462Z,63.60
2019-03-16T08:09:16.655Z,64.20
2019-03-16T08:11:47.700Z,64.80
2019-03-16T08:14:21.533Z,65.00
2019-03-16T08:16:55.502Z,65.10
2019-03-16T08:19:26.974Z,65.40
2019-03-16T08:21:58.480Z,65.70
2019-03-16T08:24:32.054Z,66.10
2019-03-16T08:27:07.193Z,66.40
2019-03-16T08:29:38.293Z,66.20
2019-03-16T08:32:14.772Z,65.90
2019-03-16T08:34:46.269Z,66.20
2019-03-16T08:37:17.678Z,64.80
2019-03-16T08:39:48.897Z,65.10
2019-03-16T08:42:20.078Z,65.30
2019-03-16T08:44:51.312Z,65.40
2019-03-16T08:47:22.538Z,66.20
2019-03-16T08:49:53.664Z,66.20
2019-03-16T08:52:24.915Z,66.50
2019-03-16T08:54:56.334Z,67.20
2019-03-16T08:57:27.578Z,67.90
2019-03-16T08:59:58.797Z,68.00
2019-03-16T09:02:30.015Z,67.70
2019-03-16T09:05:01.099Z,67.40
2019-03-16T09:07:32.231Z,67.60
2019-03-16T09:10:03.692Z,67.50
2019-03-16T09:12:34.825Z,67.30
2019-03-16T09:15:07.434Z,67.30
2019-03-16T09:17:38.698Z,66.80
2019-03-16T09:20:10.676Z,66.80
2019-03-16T09:22:42.317Z,66.90
2019-03-16T09:25:13.723Z,66.90
2019-03-16T09:27:45.376Z,66.70
2019-03-16T09:30:17.087Z,67.10
2019-03-16T09:32:48.785Z,67.10
2019-03-16T09:35:20.410Z,66.80
2019-03-16T09:37:51.954Z,66.20
2019-03-16T09:40:23.529Z,66.30
2019-03-16T09:42:54.947Z,66.30
2019-03-16T09:45:26.414Z,66.50
2019-03-16T09:47:57.800Z,65.80
2019-03-16T09:50:29.573Z,66.00
2019-03-16T09:53:03.169Z,65.70
2019-03-16T09:55:35.298Z,65.30
2019-03-16T09:58:06.689Z,65.00
2019-03-16T10:00:37.950Z,64.40
2019-03-16T10:03:09.119Z,63.40
2019-03-16T10:05:40.295Z,63.10
2019-03-16T10:08:11.643Z,63.20
2019-03-16T10:10:42.873Z,63.90
2019-03-16T10:13:14.042Z,64.50
2019-03-16T10:15:45.404Z,64.00
2019-03-16T10:18:16.704Z,64.00
2019-03-16T10:20:48.098Z,63.00
2019-03-16T10:23:19.442Z,62.70
2019-03-16T10:25:50.717Z,62.10
2019-03-16T10:28:21.707Z,61.20
2019-03-16T10:30:53.017Z,59.20
2019-03-16T10:33:25.404Z,58.70
2019-03-16T10:35:56.553Z,59.20
2019-03-16T10:38:27.674Z,59.80
2019-03-16T10:40:58.870Z,60.60
2019-03-16T10:43:30.052Z,61.40
2019-03-16T10:46:01.435Z,62.20
2019-03-16T10:48:33.869Z,61.90
2019-03-16T10:51:05.149Z,60.70
2019-03-16T10:53:36.667Z,58.80
2019-03-16T10:56:08.217Z,57.80
2019-03-16T10:58:39.622Z,57.30
2019-03-16T11:01:11.204Z,55.40
2019-03-16T11:03:42.765Z,55.30
2019-03-16T11:06:14.174Z,55.90
2019-03-16T11:08:45.527Z,54.40
2019-03-16T11:11:16.884Z,54.40
2019-03-16T11:13:48.145Z,55.30
2019-03-16T11:16:19.518Z,55.70
2019-03-16T11:18:50.546Z,55.60
2019-03-16T11:21:21.695Z,53.20
2019-03-16T11:23:52.874Z,53.50
2019-03-16T11:26:24.667Z,54.60
2019-03-16T11:29:04.511Z,55.70
2019-03-16T11:31:31.622Z,55.60
2019-03-16T11:34:02.962Z,54.30
2019-03-16T11:36:34.398Z,53.80
2019-03-16T11:39:07.710Z,54.50
2019-03-16T11:41:39.077Z,54.40
2019-03-16T11:44:10.395Z,53.20
2019-03-16T11:46:41.498Z,53.90
2019-03-16T11:49:12.847Z,52.40
2019-03-16T11:51:43.860Z,53.00
2019-03-16T11:54:14.933Z,52.60
2019-03-16T11:56:47.218Z,52.70
2019-03-16T11:59:21.799Z,53.70
2019-03-16T12:01:51.339Z,54.20
2019-03-16T12:04:22.634Z,53.90
2019-03-16T12:06:53.863Z,53.00
2019-03-16T12:09:25.117Z,51.30
2019-03-16T12:11:58.649Z,52.80
2019-03-16T12:14:29.970Z,53.50
2019-03-16T12:17:03.971Z,53.00
2019-03-16T12:19:35.779Z,52.30
2019-03-16T12:22:07.594Z,52.70
2019-03-16T12:24:39.122Z,52.00
2019-03-16T12:27:18.951Z,51.50
2019-03-16T12:29:50.246Z,50.30
2019-03-16T12:32:21.955Z,49.60
2019-03-16T12:34:53.765Z,50.40
2019-03-16T12:37:25.250Z,51.10
2019-03-16T12:39:56.753Z,52.20
2019-03-16T12:42:29.235Z,52.30
2019-03-16T12:45:00.487Z,53.40
2019-03-16T12:47:31.644Z,54.40
2019-03-16T12:50:04.122Z,55.40
2019-03-16T12:52:36.472Z,56.40
2019-03-16T12:55:08.166Z,55.80
2019-03-16T12:57:39.036Z,55.90
2019-03-16T13:00:16.249Z,52.80
2019-03-16T13:02:48.008Z,53.00
2019-03-16T13:05:19.040Z,49.70
2019-03-16T13:07:50.270Z,50.00
2019-03-16T13:10:21.174Z,51.70
2019-03-16T13:12:52.196Z,50.60
2019-03-16T13:15:23.858Z,51.30
2019-03-16T13:17:54.974Z,52.40
2019-03-16T13:20:26.285Z,53.20
2019-03-16T13:22:57.495Z,53.10
2019-03-16T13:25:29.858Z,53.80
2019-03-16T13:28:02.781Z,54.10
2019-03-16T13:30:33.812Z,55.00
2019-03-16T13:33:04.954Z,55.30
2019-03-16T13:35:36.314Z,53.80
2019-03-16T13:38:07.361Z,53.20
2019-03-16T13:40:38.710Z,52.20
2019-03-16T13:43:10.340Z,52.60
2019-03-16T13:45:41.485Z,52.90
2019-03-16T13:48:12.760Z,53.90
2019-03-16T13:50:43.883Z,55.10
2019-03-16T13:53:15.955Z,55.20
2019-03-16T13:55:47.067Z,55.70
2019-03-16T13:58:18.841Z,54.50
2019-03-16T14:00:49.960Z,53.20
2019-03-16T14:03:23.041Z,51.90
2019-03-16T14:05:54.113Z,51.60
2019-03-16T14:08:25.555Z,51.50
2019-03-16T14:10:56.567Z,51.00
2019-03-16T14:13:32.552Z,48.50
2019-03-16T14:16:07.080Z,45.70
2019-03-16T14:18:43.421Z,44.60
2019-03-16T14:21:20.411Z,42.30
2019-03-16T14:23:52.975Z,40.70
2019-03-16T14:26:25.312Z,40.70
2019-03-16T14:28:56.360Z,41.70
2019-03-16T14:31:27.508Z,42.60
2019-03-16T14:33:59.253Z,44.90
2019-03-16T14:36:30.625Z,47.00
2019-03-16T14:39:05.020Z,47.50
2019-03-16T14:41:36.091Z,49.00
2019-03-16T14:44:07.714Z,50.30
2019-03-16T14:46:40.301Z,50.70
2019-03-16T14:49:12.485Z,50.60
2019-03-16T14:51:44.159Z,50.80
2019-03-16T14:54:15.765Z,51.20
2019-03-16T14:56:46.893Z,51.90
2019-03-16T14:59:19.393Z,52.80
2019-03-16T15:01:50.283Z,52.90
2019-03-16T15:04:21.129Z,53.50
2019-03-16T15:06:52.003Z,54.00
2019-03-16T15:09:22.864Z,54.60
2019-03-16T15:11:53.665Z,55.00
2019-03-16T15:14:25.044Z,55.30
2019-03-16T15:16:57.461Z,55.60
2019-03-16T15:19:29.051Z,55.90
2019-03-16T15:22:00.608Z,56.10
2019-03-16T15:24:32.106Z,55.90
2019-03-16T15:27:03.173Z,56.30
2019-03-16T15:29:34.577Z,56.10
2019-03-16T15:32:06.015Z,56.40
2019-03-16T15:34:37.514Z,56.80
2019-03-16T15:37:09.012Z,56.80
2019-03-16T15:39:40.522Z,56.90
2019-03-16T15:42:12.897Z,57.40
2019-03-16T15:44:44.047Z,57.50
2019-03-16T15:47:15.319Z,57.50
2019-03-16T15:49:46.466Z,56.70
2019-03-16T15:52:17.633Z,56.20
2019-03-16T15:54:48.846Z,56.00
2019-03-16T15:57:20.015Z,55.80
2019-03-16T15:59:51.298Z,55.80
2019-03-16T16:02:22.497Z,55.70
2019-03-16T16:05:05.061Z,56.00
2019-03-16T16:07:44.332Z,56.20
2019-03-16T16:10:16.702Z,56.40
2019-03-16T16:12:49.361Z,56.80
2019-03-16T16:15:39.902Z,57.10
2019-03-16T16:18:21.273Z,57.30
2019-03-16T16:20:53.197Z,57.70
2019-03-16T16:23:25.398Z,57.80
2019-03-16T16:25:56.801Z,58.00
2019-03-16T16:28:30.015Z,58.20
2019-03-16T16:31:02.184Z,58.40
2019-03-16T16:33:33.956Z,58.60
2019-03-16T16:36:08.408Z,58.80
2019-03-16T16:38:41.705Z,58.90
2019-03-16T16:41:13.153Z,59.00
2019-03-16T16:43:44.854Z,59.20
2019-03-16T16:46:16.253Z,59.20
2019-03-16T16:48:47.372Z,59.40
2019-03-16T16:51:18.899Z,59.50
2019-03-16T16:53:50.095Z,59.70
2019-03-16T16:56:21.277Z,59.90
2019-03-16T16:58:52.302Z,59.90
2019-03-16T17:01:29.201Z,59.90
2019-03-16T17:03:56.187Z,60.10
2019-03-16T17:06:27.567Z,60.20
2019-03-16T17:08:59.062Z,60.20
2019-03-16T17:11:30.567Z,60.20
2019-03-16T17:14:01.504Z,60.20
2019-03-16T17:16:33.105Z,60.50
2019-03-16T17:19:04.330Z,60.40
2019-03-16T17:21:35.595Z,60.40
2019-03-16T17:24:06.888Z,60.60
2019-03-16T17:26:38.091Z,60.50
2019-03-16T17:29:09.356Z,60.60
2019-03-16T17:31:42.495Z,60.50
2019-03-16T17:34:13.620Z,60.60
2019-03-16T17:36:44.807Z,60.60
2019-03-16T17:39:16.232Z,60.70
2019-03-16T17:41:47.598Z,60.90
2019-03-16T17:44:19.012Z,60.80
2019-03-16T17:46:50.130Z,61.10
2019-03-16T17:49:21.449Z,61.10
2019-03-16T17:51:52.791Z,61.20
2019-03-16T17:54:23.894Z,61.20
2019-03-16T17:56:55.033Z,61.40
2019-03-16T17:59:26.474Z,61.50
2019-03-16T18:01:57.813Z,61.60
2019-03-16T18:04:30.230Z,61.70
2019-03-16T18:07:01.643Z,61.80
2019-03-16T18:09:34.744Z,62.00
2019-03-16T18:12:06.160Z,62.10
2019-03-16T18:14:37.261Z,62.00
2019-03-16T18:17:08.740Z,62.10
2019-03-16T18:19:39.952Z,62.10
2019-03-16T18:22:12.299Z,62.00
2019-03-16T18:24:43.630Z,62.10
2019-03-16T18:27:15.808Z,62.10
2019-03-16T18:29:46.954Z,62.00
2019-03-16T18:32:18.242Z,61.90
2019-03-16T18:34:50.518Z,62.00
2019-03-16T18:37:21.892Z,62.00
2019-03-16T18:39:53.170Z,62.90
2019-03-16T18:42:24.447Z,62.20
2019-03-16T18:44:55.458Z,62.40
2019-03-16T18:47:26.598Z,62.40
2019-03-16T18:49:57.805Z,62.40
2019-03-16T18:52:29.240Z,62.50
2019-03-16T18:55:00.535Z,62.60
2019-03-16T18:57:32.008Z,62.70
2019-03-16T19:00:03.766Z,62.80
2019-03-16T19:02:36.015Z,62.80
2019-03-16T19:05:09.161Z,62.90
2019-03-16T19:07:40.477Z,62.80
2019-03-16T19:10:12.272Z,62.70
2019-03-16T19:12:43.338Z,63.20
2019-03-16T19:15:15.141Z,62.70
2019-03-16T19:17:57.950Z,62.60
2019-03-16T19:20:19.684Z,62.70
2019-03-16T19:22:52.389Z,62.70
2019-03-16T19:25:24.219Z,62.80
2019-03-16T19:28:01.534Z,63.00
2019-03-16T19:30:33.712Z,62.60
2019-03-16T19:33:05.183Z,62.90
2019-03-16T19:35:36.650Z,63.00
2019-03-16T19:38:08.264Z,62.70
2019-03-16T19:40:39.382Z,62.40
2019-03-16T19:43:10.729Z,62.40
2019-03-16T19:45:41.707Z,62.30
2019-03-16T19:48:13.130Z,62.00
2019-03-16T19:50:44.292Z,62.20
2019-03-16T19:53:15.555Z,62.30
2019-03-16T19:55:46.932Z,62.40
2019-03-16T19:58:18.265Z,62.90
2019-03-16T20:00:49.822Z,62.30
2019-03-16T20:03:21.398Z,62.30
2019-03-16T20:05:52.767Z,62.30
2019-03-16T20:08:23.898Z,62.30
2019-03-16T20:11:05.955Z,62.30
2019-03-16T20:13:27.885Z,62.20
2019-03-16T20:15:58.781Z,62.30
2019-03-16T20:18:29.816Z,62.40
2019-03-16T20:21:01.491Z,62.40
2019-03-16T20:23:32.868Z,63.30
2019-03-16T20:26:04.055Z,62.60
2019-03-16T20:28:35.164Z,62.60
2019-03-16T20:31:06.287Z,62.40
2019-03-16T20:33:37.270Z,62.40
2019-03-16T20:36:08.417Z,62.30
2019-03-16T20:38:40.006Z,62.00
2019-03-16T20:41:11.382Z,62.00
2019-03-16T20:43:42.815Z,61.80
2019-03-16T20:46:13.838Z,61.90
2019-03-16T20:48:44.899Z,62.20
2019-03-16T20:51:16.118Z,62.50
2019-03-16T20:53:47.360Z,62.60
2019-03-16T20:56:18.474Z,63.30
2019-03-16T20:58:49.881Z,63.00
2019-03-16T21:01:21.167Z,63.10
2019-03-16T21:03:52.602Z,63.30
2019-03-16T21:06:23.782Z,63.30
2019-03-16T21:09:02.944Z,63.30
2019-03-16T21:11:30.964Z,63.40
2019-03-16T21:14:02.197Z,63.50
2019-03-16T21:16:33.305Z,63.40
2019-03-16T21:19:04.437Z,63.40
2019-03-16T21:21:36.729Z,63.60
2019-03-16T21:24:08.128Z,63.50
2019-03-16T21:26:51.657Z,63.40
2019-03-16T21:29:11.952Z,63.40
2019-03-16T21:31:43.154Z,63.40
2019-03-16T21:34:15.440Z,63.50
2019-03-16T21:36:46.434Z,63.60
2019-03-16T21:39:18.576Z,63.60
2019-03-16T21:41:49.578Z,63.80
2019-03-16T21:44:20.809Z,63.80
2019-03-16T21:46:52.094Z,63.70
2019-03-16T21:49:23.260Z,63.60
2019-03-16T21:51:54.375Z,63.50
2019-03-16T21:54:25.501Z,63.30
2019-03-16T21:56:56.424Z,63.00
2019-03-16T21:59:27.853Z,63.20
2019-03-16T22:01:59.135Z,63.50
2019-03-16T22:04:30.247Z,63.60
2019-03-16T22:07:04.277Z,63.70
2019-03-16T22:09:35.342Z,64.00
2019-03-16T22:12:06.501Z,64.10
2019-03-16T22:14:37.592Z,64.20
2019-03-16T22:17:08.358Z,64.20
2019-03-16T22:19:39.434Z,64.20
2019-03-16T22:22:10.449Z,64.30
2019-03-16T22:24:41.799Z,64.30
2019-03-16T22:28:35.450Z,64.30
2019-03-16T22:31:03.876Z,64.20
2019-03-16T22:33:35.031Z,64.00
2019-03-16T22:36:06.646Z,64.10
2019-03-16T22:38:37.912Z,64.20
2019-03-16T22:41:09.430Z,64.40
2019-03-16T22:43:40.882Z,64.50
2019-03-16T22:46:12.040Z,64.40
2019-03-16T22:48:43.209Z,64.40
2019-03-16T22:51:14.434Z,64.50
2019-03-16T22:53:45.445Z,64.80
2019-03-16T22:56:16.490Z,65.00
2019-03-16T22:58:47.564Z,65.00
2019-03-16T23:01:19.177Z,65.10
2019-03-16T23:03:50.261Z,65.30
2019-03-16T23:06:21.487Z,65.40
2019-03-16T23:08:52.544Z,65.20
2019-03-16T23:11:23.820Z,65.60
2019-03-16T23:13:54.802Z,65.70
2019-03-16T23:16:25.865Z,66.10
2019-03-16T23:18:58.002Z,66.30
2019-03-16T23:21:29.061Z,66.50
2019-03-16T23:24:00.185Z,66.70
2019-03-16T23:26:38.446Z,66.80
2019-03-16T23:29:04.292Z,67.30
2019-03-16T23:31:35.438Z,67.30
2019-03-16T23:34:18.262Z,67.50
2019-03-16T23:36:39.422Z,67.70
2019-03-16T23:39:10.573Z,67.70
2019-03-16T23:41:41.555Z,67.80
2019-03-16T23:44:12.906Z,67.90
2019-03-16T23:46:44.109Z,68.00
2019-03-16T23:49:16.713Z,68.20
2019-03-16T23:51:47.762Z,68.30
2019-03-16T23:54:19.247Z,68.40
2019-03-16T23:56:50.494Z,68.60
2019-03-16T23:59:21.599Z,68.60
